sensor_id;sensor_type;location;lat;lon;timestamp;temperature;humidity
52889;DHT22;41413;52.770;6.892;2023-10-09T00:01:44;13.90;99.90
52889;DHT22;41413;52.770;6.892;2023-10-09T00:04:11;13.90;99.90
52889;DHT22;41413;52.770;6.892;2023-10-09T00:06:38;13.90;99.90
52889;DHT22;41413;52.770;6.892;2023-10-09T00:09:06;13.90;99.90
52889;DHT22;41413;52.770;6.892;2023-10-09T00:11:59;13.90;99.90
52889;DHT22;41413;52.770;6.892;2023-10-09T00:14:30;13.90;99.90
52889;DHT22;41413;52.770;6.892;2023-10-09T00:17:00;13.90;99.90
52889;DHT22;41413;52.770;6.892;2023-10-09T00:19:40;13.90;99.90
52889;DHT22;41413;52.770;6.892;2023-10-09T00:22:09;13.80;99.90
52889;DHT22;41413;52.770;6.892;2023-10-09T00:24:46;13.80;99.90
52889;DHT22;41413;52.770;6.892;2023-10-09T00:27:16;13.90;99.90
52889;DHT22;41413;52.770;6.892;2023-10-09T00:29:46;13.90;99.90
52889;DHT22;41413;52.770;6.892;2023-10-09T00:32:13;13.90;99.90
52889;DHT22;41413;52.770;6.892;2023-10-09T00:34:49;13.90;99.90
52889;DHT22;41413;52.770;6.892;2023-10-09T00:37:17;13.90;99.90
52889;DHT22;41413;52.770;6.892;2023-10-09T00:39:51;13.80;99.90
52889;DHT22;41413;52.770;6.892;2023-10-09T00:42:25;13.90;99.90
52889;DHT22;41413;52.770;6.892;2023-10-09T00:44:56;13.90;99.90
52889;DHT22;41413;52.770;6.892;2023-10-09T00:47:24;13.90;99.90
52889;DHT22;41413;52.770;6.892;2023-10-09T00:50:04;13.90;99.90
52889;DHT22;41413;52.770;6.892;2023-10-09T00:52:53;13.90;99.90
52889;DHT22;41413;52.770;6.892;2023-10-09T00:55:32;13.90;99.90
52889;DHT22;41413;52.770;6.892;2023-10-09T00:58:06;13.90;99.90
52889;DHT22;41413;52.770;6.892;2023-10-09T01:00:42;13.90;99.90
52889;DHT22;41413;52.770;6.892;2023-10-09T01:03:14;13.90;99.90
52889;DHT22;41413;52.770;6.892;2023-10-09T01:08:19;13.80;99.90
52889;DHT22;41413;52.770;6.892;2023-10-09T01:11:00;13.80;99.90
52889;DHT22;41413;52.770;6.892;2023-10-09T01:13:37;13.80;99.90
52889;DHT22;41413;52.770;6.892;2023-10-09T01:16:13;13.80;99.90
52889;DHT22;41413;52.770;6.892;2023-10-09T01:18:48;13.80;99.90
52889;DHT22;41413;52.770;6.892;2023-10-09T01:21:19;13.80;99.90
52889;DHT22;41413;52.770;6.892;2023-10-09T01:23:53;13.80;99.90
52889;DHT22;41413;52.770;6.892;2023-10-09T01:26:34;13.80;99.90
52889;DHT22;41413;52.770;6.892;2023-10-09T01:29:19;13.70;99.90
52889;DHT22;41413;52.770;6.892;2023-10-09T01:31:54;13.70;99.90
52889;DHT22;41413;52.770;6.892;2023-10-09T01:34:32;13.70;99.90
52889;DHT22;41413;52.770;6.892;2023-10-09T01:37:06;13.70;99.90
52889;DHT22;41413;52.770;6.892;2023-10-09T01:39:39;13.60;99.90
52889;DHT22;41413;52.770;6.892;2023-10-09T01:42:09;13.60;99.90
52889;DHT22;41413;52.770;6.892;2023-10-09T01:44:36;13.60;99.90
52889;DHT22;41413;52.770;6.892;2023-10-09T01:47:10;13.60;99.90
52889;DHT22;41413;52.770;6.892;2023-10-09T01:49:45;13.60;99.90
52889;DHT22;41413;52.770;6.892;2023-10-09T01:52:16;13.60;99.90
52889;DHT22;41413;52.770;6.892;2023-10-09T01:54:44;13.60;99.90
52889;DHT22;41413;52.770;6.892;2023-10-09T01:57:17;13.60;99.90
52889;DHT22;41413;52.770;6.892;2023-10-09T01:59:51;13.60;99.90
52889;DHT22;41413;52.770;6.892;2023-10-09T02:02:22;13.50;99.90
52889;DHT22;41413;52.770;6.892;2023-10-09T02:05:02;13.50;99.90
52889;DHT22;41413;52.770;6.892;2023-10-09T02:07:37;13.60;99.90
52889;DHT22;41413;52.770;6.892;2023-10-09T02:10:11;13.40;99.90
52889;DHT22;41413;52.770;6.892;2023-10-09T02:13:07;13.50;99.90
52889;DHT22;41413;52.770;6.892;2023-10-09T02:15:37;13.60;99.90
52889;DHT22;41413;52.770;6.892;2023-10-09T02:18:11;13.50;99.90
52889;DHT22;41413;52.770;6.892;2023-10-09T02:21:05;13.50;99.90
52889;DHT22;41413;52.770;6.892;2023-10-09T02:23:33;13.50;99.90
52889;DHT22;41413;52.770;6.892;2023-10-09T02:26:23;13.50;99.90
52889;DHT22;41413;52.770;6.892;2023-10-09T02:28:54;13.50;99.90
52889;DHT22;41413;52.770;6.892;2023-10-09T02:31:41;13.50;99.90
52889;DHT22;41413;52.770;6.892;2023-10-09T02:34:13;13.50;99.90
52889;DHT22;41413;52.770;6.892;2023-10-09T02:36:42;13.50;99.90
52889;DHT22;41413;52.770;6.892;2023-10-09T02:39:29;13.50;99.90
52889;DHT22;41413;52.770;6.892;2023-10-09T02:42:03;13.50;99.90
52889;DHT22;41413;52.770;6.892;2023-10-09T02:44:39;13.50;99.90
52889;DHT22;41413;52.770;6.892;2023-10-09T02:47:13;13.50;99.90
52889;DHT22;41413;52.770;6.892;2023-10-09T02:49:47;13.50;99.90
52889;DHT22;41413;52.770;6.892;2023-10-09T02:52:17;13.50;99.90
52889;DHT22;41413;52.770;6.892;2023-10-09T02:54:52;13.50;99.90
52889;DHT22;41413;52.770;6.892;2023-10-09T02:57:27;13.50;99.90
52889;DHT22;41413;52.770;6.892;2023-10-09T03:00:03;13.50;99.90
52889;DHT22;41413;52.770;6.892;2023-10-09T03:02:35;13.50;99.90
52889;DHT22;41413;52.770;6.892;2023-10-09T03:05:07;13.60;99.90
52889;DHT22;41413;52.770;6.892;2023-10-09T03:07:38;13.60;99.90
52889;DHT22;41413;52.770;6.892;2023-10-09T03:10:07;13.60;99.90
52889;DHT22;41413;52.770;6.892;2023-10-09T03:12:36;13.60;99.90
52889;DHT22;41413;52.770;6.892;2023-10-09T03:15:06;13.60;99.90
52889;DHT22;41413;52.770;6.892;2023-10-09T03:17:35;13.60;99.90
52889;DHT22;41413;52.770;6.892;2023-10-09T03:20:05;13.60;99.90
52889;DHT22;41413;52.770;6.892;2023-10-09T03:22:40;13.60;99.90
52889;DHT22;41413;52.770;6.892;2023-10-09T03:25:07;13.60;99.90
52889;DHT22;41413;52.770;6.892;2023-10-09T03:27:44;13.60;99.90
52889;DHT22;41413;52.770;6.892;2023-10-09T03:30:13;13.60;99.90
52889;DHT22;41413;52.770;6.892;2023-10-09T03:32:52;13.60;99.90
52889;DHT22;41413;52.770;6.892;2023-10-09T03:35:21;13.60;99.90
52889;DHT22;41413;52.770;6.892;2023-10-09T03:37:54;13.70;99.90
52889;DHT22;41413;52.770;6.892;2023-10-09T03:40:24;13.60;99.90
52889;DHT22;41413;52.770;6.892;2023-10-09T03:42:52;13.70;99.90
52889;DHT22;41413;52.770;6.892;2023-10-09T03:45:22;13.70;99.90
52889;DHT22;41413;52.770;6.892;2023-10-09T03:47:53;13.70;99.90
52889;DHT22;41413;52.770;6.892;2023-10-09T03:50:41;13.80;99.90
52889;DHT22;41413;52.770;6.892;2023-10-09T03:53:10;13.80;99.90
52889;DHT22;41413;52.770;6.892;2023-10-09T03:55:39;13.80;99.90
52889;DHT22;41413;52.770;6.892;2023-10-09T03:58:07;13.90;99.90
52889;DHT22;41413;52.770;6.892;2023-10-09T04:00:34;13.80;99.90
52889;DHT22;41413;52.770;6.892;2023-10-09T04:03:11;13.80;99.90
52889;DHT22;41413;52.770;6.892;2023-10-09T04:05:41;13.90;99.90
52889;DHT22;41413;52.770;6.892;2023-10-09T04:08:12;14.00;99.90
52889;DHT22;41413;52.770;6.892;2023-10-09T04:10:56;13.90;99.90
52889;DHT22;41413;52.770;6.892;2023-10-09T04:13:33;14.00;99.90
52889;DHT22;41413;52.770;6.892;2023-10-09T04:16:04;14.10;99.90
52889;DHT22;41413;52.770;6.892;2023-10-09T04:18:38;14.10;99.90
52889;DHT22;41413;52.770;6.892;2023-10-09T04:21:06;14.10;99.90
52889;DHT22;41413;52.770;6.892;2023-10-09T04:23:46;14.00;99.90
52889;DHT22;41413;52.770;6.892;2023-10-09T04:26:31;14.20;99.90
52889;DHT22;41413;52.770;6.892;2023-10-09T04:29:01;14.20;99.90
52889;DHT22;41413;52.770;6.892;2023-10-09T04:31:28;14.10;99.90
52889;DHT22;41413;52.770;6.892;2023-10-09T04:33:59;14.20;99.90
52889;DHT22;41413;52.770;6.892;2023-10-09T04:36:56;14.30;99.90
52889;DHT22;41413;52.770;6.892;2023-10-09T04:39:42;14.20;99.90
52889;DHT22;41413;52.770;6.892;2023-10-09T04:42:15;14.30;99.90
52889;DHT22;41413;52.770;6.892;2023-10-09T04:45:06;14.30;99.90
52889;DHT22;41413;52.770;6.892;2023-10-09T04:47:34;14.30;99.90
52889;DHT22;41413;52.770;6.892;2023-10-09T04:50:06;14.30;99.90
52889;DHT22;41413;52.770;6.892;2023-10-09T04:53:02;14.30;99.90
52889;DHT22;41413;52.770;6.892;2023-10-09T04:55:52;14.30;99.90
52889;DHT22;41413;52.770;6.892;2023-10-09T04:58:24;14.30;99.90
52889;DHT22;41413;52.770;6.892;2023-10-09T05:00:54;14.40;99.90
52889;DHT22;41413;52.770;6.892;2023-10-09T05:03:25;14.30;99.90
52889;DHT22;41413;52.770;6.892;2023-10-09T05:05:55;14.40;99.90
52889;DHT22;41413;52.770;6.892;2023-10-09T05:08:26;14.30;99.90
52889;DHT22;41413;52.770;6.892;2023-10-09T05:11:01;14.30;99.90
52889;DHT22;41413;52.770;6.892;2023-10-09T05:13:30;14.40;99.90
52889;DHT22;41413;52.770;6.892;2023-10-09T05:18:35;14.30;99.90
52889;DHT22;41413;52.770;6.892;2023-10-09T05:21:05;14.30;99.90
52889;DHT22;41413;52.770;6.892;2023-10-09T05:23:32;14.30;99.90
52889;DHT22;41413;52.770;6.892;2023-10-09T05:26:10;14.30;99.90
52889;DHT22;41413;52.770;6.892;2023-10-09T05:31:47;14.30;99.90
52889;DHT22;41413;52.770;6.892;2023-10-09T05:34:23;14.40;99.90
52889;DHT22;41413;52.770;6.892;2023-10-09T05:37:03;14.40;99.90
52889;DHT22;41413;52.770;6.892;2023-10-09T05:39:55;14.40;99.90
52889;DHT22;41413;52.770;6.892;2023-10-09T05:42:46;14.40;99.90
52889;DHT22;41413;52.770;6.892;2023-10-09T05:45:24;14.40;99.90
52889;DHT22;41413;52.770;6.892;2023-10-09T05:48:09;14.50;99.90
52889;DHT22;41413;52.770;6.892;2023-10-09T05:50:39;14.40;99.90
52889;DHT22;41413;52.770;6.892;2023-10-09T05:53:15;14.50;99.90
52889;DHT22;41413;52.770;6.892;2023-10-09T05:56:05;14.50;99.90
52889;DHT22;41413;52.770;6.892;2023-10-09T05:58:50;14.50;99.90
52889;DHT22;41413;52.770;6.892;2023-10-09T06:01:36;14.50;99.90
52889;DHT22;41413;52.770;6.892;2023-10-09T06:04:22;14.60;99.90
52889;DHT22;41413;52.770;6.892;2023-10-09T06:07:03;14.60;99.90
52889;DHT22;41413;52.770;6.892;2023-10-09T06:09:39;14.70;99.90
52889;DHT22;41413;52.770;6.892;2023-10-09T06:12:24;14.60;99.90
52889;DHT22;41413;52.770;6.892;2023-10-09T06:15:01;14.70;99.90
52889;DHT22;41413;52.770;6.892;2023-10-09T06:17:59;14.70;99.90
52889;DHT22;41413;52.770;6.892;2023-10-09T06:20:46;14.80;99.90
52889;DHT22;41413;52.770;6.892;2023-10-09T06:23:31;14.80;99.90
52889;DHT22;41413;52.770;6.892;2023-10-09T06:26:16;14.80;99.90
52889;DHT22;41413;52.770;6.892;2023-10-09T06:28:53;14.90;99.90
52889;DHT22;41413;52.770;6.892;2023-10-09T06:31:38;14.80;99.90
52889;DHT22;41413;52.770;6.892;2023-10-09T06:34:23;14.90;99.90
52889;DHT22;41413;52.770;6.892;2023-10-09T06:36:59;14.90;99.90
52889;DHT22;41413;52.770;6.892;2023-10-09T06:39:36;15.00;99.90
52889;DHT22;41413;52.770;6.892;2023-10-09T06:42:26;15.00;99.90
52889;DHT22;41413;52.770;6.892;2023-10-09T06:45:08;15.00;99.90
52889;DHT22;41413;52.770;6.892;2023-10-09T06:47:46;15.00;99.90
52889;DHT22;41413;52.770;6.892;2023-10-09T06:50:23;15.20;99.90
52889;DHT22;41413;52.770;6.892;2023-10-09T06:52:53;15.20;99.90
52889;DHT22;41413;52.770;6.892;2023-10-09T06:55:27;15.20;99.90
52889;DHT22;41413;52.770;6.892;2023-10-09T06:58:02;15.30;99.90
52889;DHT22;41413;52.770;6.892;2023-10-09T07:00:39;15.30;99.90
52889;DHT22;41413;52.770;6.892;2023-10-09T07:03:28;15.30;99.90
52889;DHT22;41413;52.770;6.892;2023-10-09T07:06:09;15.40;99.90
52889;DHT22;41413;52.770;6.892;2023-10-09T07:08:51;15.40;99.90
52889;DHT22;41413;52.770;6.892;2023-10-09T07:14:14;15.40;99.90
52889;DHT22;41413;52.770;6.892;2023-10-09T07:17:19;15.50;99.90
52889;DHT22;41413;52.770;6.892;2023-10-09T07:19:50;15.50;99.90
52889;DHT22;41413;52.770;6.892;2023-10-09T07:22:17;15.70;99.90
52889;DHT22;41413;52.770;6.892;2023-10-09T07:24:51;15.70;99.90
52889;DHT22;41413;52.770;6.892;2023-10-09T07:27:31;15.70;99.90
52889;DHT22;41413;52.770;6.892;2023-10-09T07:30:19;15.70;99.90
52889;DHT22;41413;52.770;6.892;2023-10-09T07:33:01;15.70;99.90
52889;DHT22;41413;52.770;6.892;2023-10-09T07:40:41;15.80;99.90
52889;DHT22;41413;52.770;6.892;2023-10-09T07:43:47;15.80;99.90
52889;DHT22;41413;52.770;6.892;2023-10-09T07:46:17;15.80;99.90
52889;DHT22;41413;52.770;6.892;2023-10-09T07:49:01;15.80;99.90
52889;DHT22;41413;52.770;6.892;2023-10-09T07:51:36;15.90;99.90
52889;DHT22;41413;52.770;6.892;2023-10-09T07:54:03;15.80;99.90
52889;DHT22;41413;52.770;6.892;2023-10-09T07:56:38;15.80;99.90
52889;DHT22;41413;52.770;6.892;2023-10-09T07:59:08;15.90;99.90
52889;DHT22;41413;52.770;6.892;2023-10-09T08:01:43;15.90;99.90
52889;DHT22;41413;52.770;6.892;2023-10-09T08:04:20;15.90;99.90
52889;DHT22;41413;52.770;6.892;2023-10-09T08:07:04;16.00;99.90
52889;DHT22;41413;52.770;6.892;2023-10-09T08:09:55;15.90;99.90
52889;DHT22;41413;52.770;6.892;2023-10-09T08:12:41;16.00;99.90
52889;DHT22;41413;52.770;6.892;2023-10-09T08:15:13;15.90;99.90
52889;DHT22;41413;52.770;6.892;2023-10-09T08:17:53;15.90;99.90
52889;DHT22;41413;52.770;6.892;2023-10-09T08:20:27;16.10;99.90
52889;DHT22;41413;52.770;6.892;2023-10-09T08:22:55;16.00;99.90
52889;DHT22;41413;52.770;6.892;2023-10-09T08:25:26;16.10;99.90
52889;DHT22;41413;52.770;6.892;2023-10-09T08:27:56;16.10;99.90
52889;DHT22;41413;52.770;6.892;2023-10-09T08:30:25;16.10;99.90
52889;DHT22;41413;52.770;6.892;2023-10-09T08:32:52;16.10;99.90
52889;DHT22;41413;52.770;6.892;2023-10-09T08:35:55;16.20;99.90
52889;DHT22;41413;52.770;6.892;2023-10-09T08:38:28;16.20;99.90
52889;DHT22;41413;52.770;6.892;2023-10-09T08:41:07;16.20;99.90
52889;DHT22;41413;52.770;6.892;2023-10-09T08:43:39;16.20;99.90
52889;DHT22;41413;52.770;6.892;2023-10-09T08:46:08;16.20;99.90
52889;DHT22;41413;52.770;6.892;2023-10-09T08:48:35;16.20;99.90
52889;DHT22;41413;52.770;6.892;2023-10-09T08:51:06;16.30;99.90
52889;DHT22;41413;52.770;6.892;2023-10-09T08:53:33;16.30;99.90
52889;DHT22;41413;52.770;6.892;2023-10-09T08:56:00;16.30;99.90
52889;DHT22;41413;52.770;6.892;2023-10-09T08:58:29;16.30;99.90
52889;DHT22;41413;52.770;6.892;2023-10-09T09:01:03;16.30;99.90
52889;DHT22;41413;52.770;6.892;2023-10-09T09:03:39;16.30;99.90
52889;DHT22;41413;52.770;6.892;2023-10-09T09:06:06;16.30;99.90
52889;DHT22;41413;52.770;6.892;2023-10-09T09:08:34;16.30;99.90
52889;DHT22;41413;52.770;6.892;2023-10-09T09:11:11;16.30;99.90
52889;DHT22;41413;52.770;6.892;2023-10-09T09:13:39;16.30;99.90
52889;DHT22;41413;52.770;6.892;2023-10-09T09:16:16;16.30;99.90
52889;DHT22;41413;52.770;6.892;2023-10-09T09:18:55;16.30;99.90
52889;DHT22;41413;52.770;6.892;2023-10-09T09:21:42;16.30;99.90
52889;DHT22;41413;52.770;6.892;2023-10-09T09:24:11;16.40;99.90
52889;DHT22;41413;52.770;6.892;2023-10-09T09:26:52;16.30;99.90
52889;DHT22;41413;52.770;6.892;2023-10-09T09:32:08;16.30;99.90
52889;DHT22;41413;52.770;6.892;2023-10-09T09:34:48;16.30;99.90
52889;DHT22;41413;52.770;6.892;2023-10-09T09:37:25;16.30;99.90
52889;DHT22;41413;52.770;6.892;2023-10-09T09:40:01;16.30;99.90
52889;DHT22;41413;52.770;6.892;2023-10-09T09:42:38;16.20;99.90
52889;DHT22;41413;52.770;6.892;2023-10-09T09:45:11;16.20;99.90
52889;DHT22;41413;52.770;6.892;2023-10-09T09:47:40;16.30;99.90
52889;DHT22;41413;52.770;6.892;2023-10-09T09:50:13;16.30;99.90
52889;DHT22;41413;52.770;6.892;2023-10-09T09:52:49;16.30;99.90
52889;DHT22;41413;52.770;6.892;2023-10-09T09:55:20;16.30;99.90
52889;DHT22;41413;52.770;6.892;2023-10-09T09:57:58;16.20;99.90
52889;DHT22;41413;52.770;6.892;2023-10-09T10:00:31;16.40;99.90
52889;DHT22;41413;52.770;6.892;2023-10-09T10:03:12;16.30;99.90
52889;DHT22;41413;52.770;6.892;2023-10-09T10:05:44;16.40;99.90
52889;DHT22;41413;52.770;6.892;2023-10-09T10:08:22;16.40;99.90
52889;DHT22;41413;52.770;6.892;2023-10-09T10:10:58;16.40;99.90
52889;DHT22;41413;52.770;6.892;2023-10-09T10:16:14;16.50;99.90
52889;DHT22;41413;52.770;6.892;2023-10-09T10:18:57;16.50;99.90
52889;DHT22;41413;52.770;6.892;2023-10-09T10:21:29;16.60;99.90
52889;DHT22;41413;52.770;6.892;2023-10-09T10:32:58;17.10;99.90
52889;DHT22;41413;52.770;6.892;2023-10-09T10:35:25;17.20;99.90
52889;DHT22;41413;52.770;6.892;2023-10-09T10:38:29;17.20;99.90
52889;DHT22;41413;52.770;6.892;2023-10-09T10:41:17;17.20;99.90
52889;DHT22;41413;52.770;6.892;2023-10-09T10:43:47;17.10;99.90
52889;DHT22;41413;52.770;6.892;2023-10-09T10:46:18;17.20;99.90
52889;DHT22;41413;52.770;6.892;2023-10-09T10:48:52;17.20;99.90
52889;DHT22;41413;52.770;6.892;2023-10-09T10:51:35;17.10;99.90
52889;DHT22;41413;52.770;6.892;2023-10-09T10:54:08;17.20;99.90
52889;DHT22;41413;52.770;6.892;2023-10-09T10:57:20;17.20;99.90
52889;DHT22;41413;52.770;6.892;2023-10-09T10:59:57;17.20;99.90
52889;DHT22;41413;52.770;6.892;2023-10-09T11:02:43;17.30;99.90
52889;DHT22;41413;52.770;6.892;2023-10-09T11:05:11;17.30;99.90
52889;DHT22;41413;52.770;6.892;2023-10-09T11:07:57;17.20;99.90
52889;DHT22;41413;52.770;6.892;2023-10-09T11:10:24;17.20;99.90
52889;DHT22;41413;52.770;6.892;2023-10-09T11:12:55;17.20;99.90
52889;DHT22;41413;52.770;6.892;2023-10-09T11:15:42;17.30;99.90
52889;DHT22;41413;52.770;6.892;2023-10-09T11:18:14;17.30;99.90
52889;DHT22;41413;52.770;6.892;2023-10-09T11:20:51;17.30;99.90
52889;DHT22;41413;52.770;6.892;2023-10-09T11:23:33;17.30;99.90
52889;DHT22;41413;52.770;6.892;2023-10-09T11:26:07;17.30;99.90
52889;DHT22;41413;52.770;6.892;2023-10-09T11:29:11;17.20;99.90
52889;DHT22;41413;52.770;6.892;2023-10-09T11:32:02;17.30;99.90
52889;DHT22;41413;52.770;6.892;2023-10-09T11:34:33;17.30;99.90
52889;DHT22;41413;52.770;6.892;2023-10-09T11:37:14;17.20;99.90
52889;DHT22;41413;52.770;6.892;2023-10-09T11:40:00;17.20;99.90
52889;DHT22;41413;52.770;6.892;2023-10-09T11:42:28;17.20;99.90
52889;DHT22;41413;52.770;6.892;2023-10-09T11:45:21;17.20;99.90
52889;DHT22;41413;52.770;6.892;2023-10-09T11:47:56;17.30;99.90
52889;DHT22;41413;52.770;6.892;2023-10-09T11:50:40;17.20;99.90
52889;DHT22;41413;52.770;6.892;2023-10-09T11:53:10;17.30;99.90
52889;DHT22;41413;52.770;6.892;2023-10-09T11:55:50;17.30;99.90
52889;DHT22;41413;52.770;6.892;2023-10-09T11:58:21;17.30;99.90
52889;DHT22;41413;52.770;6.892;2023-10-09T12:00:55;17.40;99.90
52889;DHT22;41413;52.770;6.892;2023-10-09T12:03:29;17.30;99.90
52889;DHT22;41413;52.770;6.892;2023-10-09T12:05:58;17.40;99.90
52889;DHT22;41413;52.770;6.892;2023-10-09T12:08:34;17.40;99.90
52889;DHT22;41413;52.770;6.892;2023-10-09T12:11:02;17.30;99.90
52889;DHT22;41413;52.770;6.892;2023-10-09T12:13:30;17.30;99.90
52889;DHT22;41413;52.770;6.892;2023-10-09T12:15:58;17.40;99.90
52889;DHT22;41413;52.770;6.892;2023-10-09T12:18:24;17.40;99.90
52889;DHT22;41413;52.770;6.892;2023-10-09T12:20:52;17.40;99.90
52889;DHT22;41413;52.770;6.892;2023-10-09T12:23:20;17.40;99.90
52889;DHT22;41413;52.770;6.892;2023-10-09T12:25:50;17.50;99.90
52889;DHT22;41413;52.770;6.892;2023-10-09T12:28:17;17.50;99.90
52889;DHT22;41413;52.770;6.892;2023-10-09T12:30:48;17.50;99.90
52889;DHT22;41413;52.770;6.892;2023-10-09T12:33:19;17.50;99.90
52889;DHT22;41413;52.770;6.892;2023-10-09T12:35:47;17.50;99.90
52889;DHT22;41413;52.770;6.892;2023-10-09T12:38:14;17.60;99.90
52889;DHT22;41413;52.770;6.892;2023-10-09T12:40:45;17.70;99.90
52889;DHT22;41413;52.770;6.892;2023-10-09T12:43:19;17.70;99.90
52889;DHT22;41413;52.770;6.892;2023-10-09T12:45:46;17.70;99.90
52889;DHT22;41413;52.770;6.892;2023-10-09T12:48:13;17.70;99.90
52889;DHT22;41413;52.770;6.892;2023-10-09T12:50:41;17.80;99.90
52889;DHT22;41413;52.770;6.892;2023-10-09T12:53:08;17.90;99.90
52889;DHT22;41413;52.770;6.892;2023-10-09T12:55:39;17.90;99.90
52889;DHT22;41413;52.770;6.892;2023-10-09T12:58:08;18.10;99.90
52889;DHT22;41413;52.770;6.892;2023-10-09T13:00:36;18.30;99.90
52889;DHT22;41413;52.770;6.892;2023-10-09T13:03:06;18.50;99.90
52889;DHT22;41413;52.770;6.892;2023-10-09T13:05:53;18.70;99.90
52889;DHT22;41413;52.770;6.892;2023-10-09T13:08:24;18.90;99.90
52889;DHT22;41413;52.770;6.892;2023-10-09T13:11:02;19.00;99.90
52889;DHT22;41413;52.770;6.892;2023-10-09T13:13:41;19.10;99.90
52889;DHT22;41413;52.770;6.892;2023-10-09T13:16:16;19.00;99.90
52889;DHT22;41413;52.770;6.892;2023-10-09T13:18:55;18.90;99.90
52889;DHT22;41413;52.770;6.892;2023-10-09T13:21:24;18.80;99.90
52889;DHT22;41413;52.770;6.892;2023-10-09T13:23:59;18.80;99.90
52889;DHT22;41413;52.770;6.892;2023-10-09T13:26:27;18.70;99.90
52889;DHT22;41413;52.770;6.892;2023-10-09T13:29:00;18.70;99.90
52889;DHT22;41413;52.770;6.892;2023-10-09T13:31:29;18.70;99.90
52889;DHT22;41413;52.770;6.892;2023-10-09T13:33:59;18.60;99.90
52889;DHT22;41413;52.770;6.892;2023-10-09T13:36:28;18.70;99.90
52889;DHT22;41413;52.770;6.892;2023-10-09T13:39:06;18.70;99.90
52889;DHT22;41413;52.770;6.892;2023-10-09T13:41:58;18.70;99.90
52889;DHT22;41413;52.770;6.892;2023-10-09T13:44:28;18.70;99.90
52889;DHT22;41413;52.770;6.892;2023-10-09T13:47:00;18.60;99.90
52889;DHT22;41413;52.770;6.892;2023-10-09T13:49:28;18.70;99.90
52889;DHT22;41413;52.770;6.892;2023-10-09T13:51:59;18.70;99.90
52889;DHT22;41413;52.770;6.892;2023-10-09T13:54:28;18.70;99.90
52889;DHT22;41413;52.770;6.892;2023-10-09T13:57:06;18.70;99.90
52889;DHT22;41413;52.770;6.892;2023-10-09T13:59:35;18.70;99.90
52889;DHT22;41413;52.770;6.892;2023-10-09T14:02:03;18.70;99.90
52889;DHT22;41413;52.770;6.892;2023-10-09T14:04:37;18.80;99.90
52889;DHT22;41413;52.770;6.892;2023-10-09T14:07:04;18.80;99.90
52889;DHT22;41413;52.770;6.892;2023-10-09T14:09:35;18.80;99.90
52889;DHT22;41413;52.770;6.892;2023-10-09T14:12:06;18.80;99.90
52889;DHT22;41413;52.770;6.892;2023-10-09T14:14:35;18.80;99.90
52889;DHT22;41413;52.770;6.892;2023-10-09T14:17:08;18.80;99.90
52889;DHT22;41413;52.770;6.892;2023-10-09T14:19:43;18.70;99.90
52889;DHT22;41413;52.770;6.892;2023-10-09T14:22:22;18.60;99.90
52889;DHT22;41413;52.770;6.892;2023-10-09T14:24:56;18.70;99.90
52889;DHT22;41413;52.770;6.892;2023-10-09T14:27:25;18.60;99.90
52889;DHT22;41413;52.770;6.892;2023-10-09T14:29:54;18.60;99.90
52889;DHT22;41413;52.770;6.892;2023-10-09T14:32:28;18.60;99.90
52889;DHT22;41413;52.770;6.892;2023-10-09T14:35:04;18.60;99.90
52889;DHT22;41413;52.770;6.892;2023-10-09T14:37:40;18.60;99.90
52889;DHT22;41413;52.770;6.892;2023-10-09T14:40:08;18.60;99.90
52889;DHT22;41413;52.770;6.892;2023-10-09T14:42:39;18.60;99.90
52889;DHT22;41413;52.770;6.892;2023-10-09T14:45:11;18.60;99.90
52889;DHT22;41413;52.770;6.892;2023-10-09T14:47:42;18.50;99.90
52889;DHT22;41413;52.770;6.892;2023-10-09T14:50:09;18.30;99.90
52889;DHT22;41413;52.770;6.892;2023-10-09T14:52:40;18.40;99.90
52889;DHT22;41413;52.770;6.892;2023-10-09T14:55:08;18.30;99.90
52889;DHT22;41413;52.770;6.892;2023-10-09T14:57:36;18.20;99.90
52889;DHT22;41413;52.770;6.892;2023-10-09T15:00:03;18.20;99.90
52889;DHT22;41413;52.770;6.892;2023-10-09T15:02:40;18.20;99.90
52889;DHT22;41413;52.770;6.892;2023-10-09T15:05:07;18.20;99.90
52889;DHT22;41413;52.770;6.892;2023-10-09T15:07:38;18.20;99.90
52889;DHT22;41413;52.770;6.892;2023-10-09T15:10:11;18.20;99.90
52889;DHT22;41413;52.770;6.892;2023-10-09T15:12:42;18.20;99.90
52889;DHT22;41413;52.770;6.892;2023-10-09T15:15:10;18.20;99.90
52889;DHT22;41413;52.770;6.892;2023-10-09T15:17:41;18.20;99.90
52889;DHT22;41413;52.770;6.892;2023-10-09T15:20:11;18.10;99.90
52889;DHT22;41413;52.770;6.892;2023-10-09T15:22:44;18.10;99.90
52889;DHT22;41413;52.770;6.892;2023-10-09T15:25:11;18.10;99.90
52889;DHT22;41413;52.770;6.892;2023-10-09T15:27:42;18.10;99.90
52889;DHT22;41413;52.770;6.892;2023-10-09T15:30:09;18.00;99.90
52889;DHT22;41413;52.770;6.892;2023-10-09T15:32:41;18.00;99.90
52889;DHT22;41413;52.770;6.892;2023-10-09T15:35:10;18.00;99.90
52889;DHT22;41413;52.770;6.892;2023-10-09T15:37:37;18.00;99.90
52889;DHT22;41413;52.770;6.892;2023-10-09T15:40:05;17.90;99.90
52889;DHT22;41413;52.770;6.892;2023-10-09T15:42:32;17.90;99.90
52889;DHT22;41413;52.770;6.892;2023-10-09T15:45:03;17.90;99.90
52889;DHT22;41413;52.770;6.892;2023-10-09T15:47:33;17.80;99.90
52889;DHT22;41413;52.770;6.892;2023-10-09T15:50:03;17.80;99.90
52889;DHT22;41413;52.770;6.892;2023-10-09T15:52:30;17.70;99.90
52889;DHT22;41413;52.770;6.892;2023-10-09T15:54:57;17.70;99.90
52889;DHT22;41413;52.770;6.892;2023-10-09T15:57:24;17.70;99.90
52889;DHT22;41413;52.770;6.892;2023-10-09T15:59:50;17.70;99.90
52889;DHT22;41413;52.770;6.892;2023-10-09T16:02:18;17.70;99.90
52889;DHT22;41413;52.770;6.892;2023-10-09T16:04:45;17.60;99.90
52889;DHT22;41413;52.770;6.892;2023-10-09T16:07:12;17.60;99.90
52889;DHT22;41413;52.770;6.892;2023-10-09T16:09:39;17.60;99.90
52889;DHT22;41413;52.770;6.892;2023-10-09T16:12:06;17.60;99.90
52889;DHT22;41413;52.770;6.892;2023-10-09T16:14:35;17.60;99.90
52889;DHT22;41413;52.770;6.892;2023-10-09T16:17:02;17.50;99.90
52889;DHT22;41413;52.770;6.892;2023-10-09T16:19:32;17.50;99.90
52889;DHT22;41413;52.770;6.892;2023-10-09T16:22:03;17.50;99.90
52889;DHT22;41413;52.770;6.892;2023-10-09T16:24:33;17.50;99.90
52889;DHT22;41413;52.770;6.892;2023-10-09T16:27:06;17.50;99.90
52889;DHT22;41413;52.770;6.892;2023-10-09T16:29:34;17.50;99.90
52889;DHT22;41413;52.770;6.892;2023-10-09T16:32:01;17.50;99.90
52889;DHT22;41413;52.770;6.892;2023-10-09T16:34:28;17.50;99.90
52889;DHT22;41413;52.770;6.892;2023-10-09T16:36:56;17.40;99.90
52889;DHT22;41413;52.770;6.892;2023-10-09T16:39:23;17.40;99.90
52889;DHT22;41413;52.770;6.892;2023-10-09T16:41:50;17.40;99.90
52889;DHT22;41413;52.770;6.892;2023-10-09T16:44:16;17.40;99.90
52889;DHT22;41413;52.770;6.892;2023-10-09T16:46:44;17.40;99.90